ADDS METAR Data INFO
IDs: Format: Raw Decoded Include TAF

Data at: 2302 UTC 15 Jul 2018

KOUN 152247Z 08012KT 10SM SCT085 35/22 A2990
KOUN 152147Z 13011KT 10SM FEW150 35/21 A2990
KOUN 152047Z 13006KT 10SM SCT150 34/22 A2994
KOUN 151945Z 07010KT 10SM SCT150 33/23 A2997
KOUN 151845Z 07009KT 10SM SCT035 SCT044 BKN050 29/22 A3000
KOUN 151745Z 06007KT 10SM OVC080 28/21 A3002
KOUN 151645Z 10005KT 10SM OVC090 28/21 A3002
KOUN 151546Z 18011KT 10SM OVC090 28/20 A3000
KOUN 151447Z 22003KT 10SM OVC080 27/20 A3000
KOUN 151345Z 21003KT 10SM OVC090 27/20 A3000 RMK LTG DSNT N AND NW
KOUN 151245Z 16007KT 10SM OVC100 27/20 A2998
KOUN 151235Z AUTO 17007KT 10SM OVC100 26/20 A2998 RMK AO2 T02640198
KOUN 151215Z AUTO 17008KT 10SM OVC120 26/20 A2998 RMK AO2 T02640198
KOUN 151155Z AUTO 17007KT 10SM BKN120 26/20 A2998 RMK AO2 T02640199 10280 20260
KOUN 151135Z AUTO 16007KT 10SM SCT120 26/20 A2998 RMK AO2 T02600200
KOUN 151115Z AUTO 16006KT 10SM SCT120 26/20 A2997 RMK AO2 T02620200
KOUN 151055Z AUTO 16007KT 10SM SCT120 26/20 A2997 RMK AO2 T02640200
KOUN 151035Z AUTO 17007KT 10SM BKN120 27/20 A2996 RMK AO2 T02660201
KOUN 151015Z AUTO 17007KT 10SM BKN120 27/20 A2997 RMK AO2 T02660203
KOUN 150955Z AUTO 17006KT 10SM CLR 27/20 A2996 RMK AO2 T02660203
KOUN 150935Z AUTO 16008KT 10SM CLR 27/20 A2996 RMK AO2 LTG DSNT E T02690204
KOUN 150915Z AUTO 16007KT 10SM CLR 27/20 A2996 RMK AO2 LTG DSNT E T02700204
KOUN 150855Z AUTO 16008KT 10SM CLR 27/20 A2996 RMK AO2 T02740202
KOUN 150835Z AUTO 16008KT 10SM CLR 28/20 A2996 RMK AO2 T02770200
KOUN 150815Z AUTO 16007KT 10SM CLR 28/20 A2996 RMK AO2 T02780200
KOUN 150755Z AUTO 15007KT 10SM SCT120 28/20 A2997 RMK AO2 LTG DSNT NE T02790200
KOUN 150735Z AUTO 15005KT 10SM SCT120 28/20 A2997 RMK AO2 T02770201
KOUN 150715Z AUTO 16004KT 10SM BKN120 27/20 A2998 RMK AO2 LTG DSNT NE T02710205
KOUN 150655Z AUTO 16004KT 10SM SCT120 27/20 A2998 RMK AO2 T02720204
KOUN 150635Z AUTO 15004KT 10SM SCT120 27/20 A2998 RMK AO2 T02720205
KOUN 150615Z AUTO 15004KT 10SM SCT075 BKN120 27/21 A2999 RMK AO2 LTG DSNT NE T02720205
KOUN 150555Z AUTO 11006KT 10SM SCT075 SCT120 27/20 A2999 RMK AO2 LTG DSNT NE T02690204 10338 20269
KOUN 150535Z AUTO 12004KT 10SM BKN120 27/20 A2999 RMK AO2 LTG DSNT NE T02710203
KOUN 150515Z AUTO 10004KT 10SM SCT120 27/20 A2999 RMK AO2 LTG DSNT NE AND E T02730202
KOUN 150455Z AUTO 17004KT 10SM CLR 27/20 A2999 RMK AO2 LTG DSNT E T02730200
KOUN 150435Z AUTO 00000KT 10SM CLR 28/20 A2999 RMK AO2 LTG DSNT E T02750199
KOUN 150415Z AUTO 17004KT 10SM CLR 28/20 A2998 RMK AO2 LTG DSNT NE AND E T02790197
KOUN 150355Z AUTO 19003KT 10SM CLR 28/20 A2997 RMK AO2 LTG DSNT NE T02820197
KOUN 150335Z AUTO 17005KT 10SM CLR 28/19 A2997 RMK AO2 T02810195
KOUN 150315Z AUTO 20005KT 10SM CLR 28/19 A2997 RMK AO2 T02820193
KOUN 150255Z AUTO 21008KT 10SM CLR 29/19 A2997 RMK AO2 LTG DSNT S T02850192
KOUN 150247Z 19007KT 10SM SCT120 29/19 A2996
KOUN 150147Z 10007KT 10SM SCT075 32/21 A2995
KOUN 150047Z 13007KT 10SM BKN200 33/21 A2994
KOUN 142347Z 08008KT 10SM SCT070 BKN090 33/23 A2993
KOUN 142246Z 05007KT 10SM SCT045 SCT075 BKN100 31/24 A2994
KOUN 142147Z 01009KT 10SM SCT065 BKN200 33/22 A2996
KOUN 142047Z 36011KT 10SM SCT060 BKN200 32/22 A2999
KOUN 141947Z 14012KT 10SM SCT055 35/19 A3001 RMK LTG VCNTY N
KOUN 141845Z 19006KT 10SM SCT120 34/20 A3003
KOUN 141745Z 14009KT 10SM SCT120 33/21 A3004
KOUN 141645Z 15011KT 10SM SCT120 32/21 A3004
KOUN 141551Z 16008KT 10SM SCT120 31/20 A3004
KOUN 141451Z 16007KT 10SM SCT120 29/20 A3005 RMK LTG DSNT N
KOUN 141345Z 17006KT 10SM OVC085 27/19 A3005 RMK LTG DSNT N
KOUN 141246Z 00000KT 10SM BKN085 BKN120 26/20 A3005
KOUN 141235Z AUTO 00000KT 10SM BKN085 OVC120 26/20 A3005 RMK AO2 T02570199
KOUN 141215Z AUTO 33005KT 10SM OVC085 25/20 A3004 RMK AO2 LTG DSNT N T02510201
KOUN 141155Z AUTO 17005KT 10SM OVC095 25/20 A3003 RMK AO2 T02470202 10272 20243
KOUN 141135Z AUTO 17007KT 10SM BKN095 24/20 A3002 RMK AO2 T02440201
KOUN 141115Z AUTO 17007KT 10SM SCT095 24/20 A3001 RMK AO2 LTG DSNT N T02450201